Hallieford, Virginia
Current Conditions -  °F | °C
As of 12:35 PM on Thursday 23 Oct 2014 (Local Time) from KW75 Reporting Station
Overcast Overcast  
Wind Chill: 59°   Ceiling: 3700
Heat Index: 59°   Visibility: 10mi
Dew Point: 46°   Wind: 12mph
Humidity: 62%   Direction: 310°NW
Pressure: 29.87"   Gusts: 22mph
Location:  37.49°N, 76.34°W
Report Text: KW75 231635Z AUTO 31010G19KT 10SM OVC037 15/08 A2987 RMK AO1 T01510079
Loading
Personal Weather Stations






























Interactive Weather Map
Tropical Storm Tracking
New forecast layout! Learn more

10-Day Weather Forecast

Advertisements
Track Severe Weather on mobile